sensor_id;sensor_type;location;lat;lon;timestamp;P1;durP1;ratioP1;P2;durP2;ratioP2
11921;SDS011;6021;51.182;3.160;2022-08-21T00:01:27;7.23;;;2.00;;
11921;SDS011;6021;51.182;3.160;2022-08-21T00:03:56;6.43;;;2.03;;
11921;SDS011;6021;51.182;3.160;2022-08-21T00:06:24;6.70;;;2.53;;
11921;SDS011;6021;51.182;3.160;2022-08-21T00:08:52;5.57;;;2.40;;
11921;SDS011;6021;51.182;3.160;2022-08-21T00:11:21;6.00;;;2.17;;
11921;SDS011;6021;51.182;3.160;2022-08-21T00:13:49;5.27;;;2.10;;
11921;SDS011;6021;51.182;3.160;2022-08-21T00:16:17;5.20;;;2.20;;
11921;SDS011;6021;51.182;3.160;2022-08-21T00:18:45;6.77;;;2.53;;
11921;SDS011;6021;51.182;3.160;2022-08-21T00:21:14;7.33;;;2.40;;
11921;SDS011;6021;51.182;3.160;2022-08-21T00:23:43;6.40;;;2.47;;
11921;SDS011;6021;51.182;3.160;2022-08-21T00:26:11;4.87;;;2.30;;
11921;SDS011;6021;51.182;3.160;2022-08-21T00:28:39;5.47;;;2.43;;
11921;SDS011;6021;51.182;3.160;2022-08-21T00:31:08;5.50;;;2.20;;
11921;SDS011;6021;51.182;3.160;2022-08-21T00:33:36;7.17;;;2.70;;
11921;SDS011;6021;51.182;3.160;2022-08-21T00:36:04;6.83;;;3.10;;
11921;SDS011;6021;51.182;3.160;2022-08-21T00:38:33;6.50;;;2.73;;
11921;SDS011;6021;51.182;3.160;2022-08-21T00:41:02;6.30;;;2.90;;
11921;SDS011;6021;51.182;3.160;2022-08-21T00:43:33;6.83;;;3.13;;
11921;SDS011;6021;51.182;3.160;2022-08-21T00:46:03;9.70;;;3.60;;
11921;SDS011;6021;51.182;3.160;2022-08-21T00:48:32;6.47;;;3.30;;
11921;SDS011;6021;51.182;3.160;2022-08-21T00:51:04;7.13;;;3.40;;
11921;SDS011;6021;51.182;3.160;2022-08-21T00:53:32;10.20;;;3.73;;
11921;SDS011;6021;51.182;3.160;2022-08-21T00:56:04;5.57;;;3.37;;
11921;SDS011;6021;51.182;3.160;2022-08-21T00:58:34;9.93;;;3.90;;
11921;SDS011;6021;51.182;3.160;2022-08-21T01:01:04;9.33;;;3.90;;
11921;SDS011;6021;51.182;3.160;2022-08-21T01:03:35;9.10;;;3.47;;
11921;SDS011;6021;51.182;3.160;2022-08-21T01:06:04;7.87;;;3.87;;
11921;SDS011;6021;51.182;3.160;2022-08-21T01:08:33;6.77;;;3.83;;
11921;SDS011;6021;51.182;3.160;2022-08-21T01:11:02;9.77;;;3.93;;
11921;SDS011;6021;51.182;3.160;2022-08-21T01:13:32;8.70;;;4.30;;
11921;SDS011;6021;51.182;3.160;2022-08-21T01:16:02;9.87;;;4.03;;
11921;SDS011;6021;51.182;3.160;2022-08-21T01:18:33;8.60;;;4.30;;
11921;SDS011;6021;51.182;3.160;2022-08-21T01:23:36;8.60;;;4.20;;
11921;SDS011;6021;51.182;3.160;2022-08-21T01:26:05;5.47;;;3.80;;
11921;SDS011;6021;51.182;3.160;2022-08-21T01:28:36;10.73;;;4.63;;
11921;SDS011;6021;51.182;3.160;2022-08-21T01:31:06;10.43;;;4.77;;
11921;SDS011;6021;51.182;3.160;2022-08-21T01:33:36;8.40;;;4.40;;
11921;SDS011;6021;51.182;3.160;2022-08-21T01:36:05;7.77;;;4.30;;
11921;SDS011;6021;51.182;3.160;2022-08-21T01:38:33;7.90;;;3.77;;
11921;SDS011;6021;51.182;3.160;2022-08-21T01:41:02;9.13;;;3.83;;
11921;SDS011;6021;51.182;3.160;2022-08-21T01:43:30;4.67;;;3.33;;
11921;SDS011;6021;51.182;3.160;2022-08-21T01:45:59;8.10;;;3.20;;
11921;SDS011;6021;51.182;3.160;2022-08-21T01:48:27;10.37;;;3.20;;
11921;SDS011;6021;51.182;3.160;2022-08-21T01:50:55;9.03;;;3.00;;
11921;SDS011;6021;51.182;3.160;2022-08-21T01:53:24;6.73;;;3.40;;
11921;SDS011;6021;51.182;3.160;2022-08-21T01:55:52;9.10;;;3.50;;
11921;SDS011;6021;51.182;3.160;2022-08-21T01:58:20;8.23;;;3.40;;
11921;SDS011;6021;51.182;3.160;2022-08-21T02:00:49;6.47;;;3.70;;
11921;SDS011;6021;51.182;3.160;2022-08-21T02:03:17;7.37;;;3.10;;
11921;SDS011;6021;51.182;3.160;2022-08-21T02:05:46;7.77;;;3.50;;
11921;SDS011;6021;51.182;3.160;2022-08-21T02:08:14;8.27;;;3.70;;
11921;SDS011;6021;51.182;3.160;2022-08-21T02:10:42;6.80;;;3.50;;
11921;SDS011;6021;51.182;3.160;2022-08-21T02:13:13;8.53;;;3.80;;
11921;SDS011;6021;51.182;3.160;2022-08-21T02:15:41;8.50;;;3.07;;
11921;SDS011;6021;51.182;3.160;2022-08-21T02:18:10;6.67;;;3.20;;
11921;SDS011;6021;51.182;3.160;2022-08-21T02:20:40;10.20;;;3.60;;
11921;SDS011;6021;51.182;3.160;2022-08-21T02:23:10;8.90;;;3.77;;
11921;SDS011;6021;51.182;3.160;2022-08-21T02:25:39;8.50;;;3.30;;
11921;SDS011;6021;51.182;3.160;2022-08-21T02:28:12;7.37;;;3.60;;
11921;SDS011;6021;51.182;3.160;2022-08-21T02:30:41;7.47;;;3.57;;
11921;SDS011;6021;51.182;3.160;2022-08-21T02:33:11;7.23;;;3.70;;
11921;SDS011;6021;51.182;3.160;2022-08-21T02:35:41;7.90;;;3.70;;
11921;SDS011;6021;51.182;3.160;2022-08-21T02:38:15;8.40;;;4.20;;
11921;SDS011;6021;51.182;3.160;2022-08-21T02:40:43;9.57;;;3.90;;
11921;SDS011;6021;51.182;3.160;2022-08-21T02:43:13;8.27;;;4.20;;
11921;SDS011;6021;51.182;3.160;2022-08-21T02:45:43;9.87;;;4.70;;
11921;SDS011;6021;51.182;3.160;2022-08-21T02:48:13;11.93;;;5.20;;
11921;SDS011;6021;51.182;3.160;2022-08-21T02:50:45;10.23;;;4.90;;
11921;SDS011;6021;51.182;3.160;2022-08-21T02:53:15;10.23;;;5.00;;
11921;SDS011;6021;51.182;3.160;2022-08-21T02:55:44;7.27;;;4.50;;
11921;SDS011;6021;51.182;3.160;2022-08-21T02:58:15;13.00;;;5.03;;
11921;SDS011;6021;51.182;3.160;2022-08-21T03:00:45;9.97;;;5.20;;
11921;SDS011;6021;51.182;3.160;2022-08-21T03:03:14;11.53;;;5.40;;
11921;SDS011;6021;51.182;3.160;2022-08-21T03:05:42;9.17;;;5.40;;
11921;SDS011;6021;51.182;3.160;2022-08-21T03:08:11;9.77;;;5.37;;
11921;SDS011;6021;51.182;3.160;2022-08-21T03:10:43;11.33;;;5.17;;
11921;SDS011;6021;51.182;3.160;2022-08-21T03:13:13;8.10;;;5.10;;
11921;SDS011;6021;51.182;3.160;2022-08-21T03:15:41;7.73;;;4.80;;
11921;SDS011;6021;51.182;3.160;2022-08-21T03:18:10;7.77;;;4.60;;
11921;SDS011;6021;51.182;3.160;2022-08-21T03:20:40;9.33;;;4.57;;
11921;SDS011;6021;51.182;3.160;2022-08-21T03:23:11;6.17;;;4.00;;
11921;SDS011;6021;51.182;3.160;2022-08-21T03:25:40;9.73;;;4.50;;
11921;SDS011;6021;51.182;3.160;2022-08-21T03:28:12;10.17;;;5.53;;
11921;SDS011;6021;51.182;3.160;2022-08-21T03:30:41;10.07;;;5.40;;
11921;SDS011;6021;51.182;3.160;2022-08-21T03:33:11;8.77;;;5.10;;
11921;SDS011;6021;51.182;3.160;2022-08-21T03:35:40;10.17;;;4.30;;
11921;SDS011;6021;51.182;3.160;2022-08-21T03:38:10;12.83;;;5.50;;
11921;SDS011;6021;51.182;3.160;2022-08-21T03:40:42;10.20;;;5.70;;
11921;SDS011;6021;51.182;3.160;2022-08-21T03:43:11;8.63;;;5.07;;
11921;SDS011;6021;51.182;3.160;2022-08-21T03:45:39;10.77;;;5.50;;
11921;SDS011;6021;51.182;3.160;2022-08-21T03:48:08;10.63;;;5.53;;
11921;SDS011;6021;51.182;3.160;2022-08-21T03:50:38;10.90;;;6.00;;
11921;SDS011;6021;51.182;3.160;2022-08-21T03:53:10;10.77;;;5.97;;
11921;SDS011;6021;51.182;3.160;2022-08-21T03:55:40;10.83;;;6.00;;
11921;SDS011;6021;51.182;3.160;2022-08-21T03:58:09;10.00;;;6.10;;
11921;SDS011;6021;51.182;3.160;2022-08-21T04:00:38;9.17;;;5.90;;
11921;SDS011;6021;51.182;3.160;2022-08-21T04:03:06;11.60;;;6.10;;
11921;SDS011;6021;51.182;3.160;2022-08-21T04:05:34;11.07;;;5.93;;
11921;SDS011;6021;51.182;3.160;2022-08-21T04:08:04;12.03;;;6.17;;
11921;SDS011;6021;51.182;3.160;2022-08-21T04:10:34;9.87;;;5.80;;
11921;SDS011;6021;51.182;3.160;2022-08-21T04:13:05;9.80;;;6.07;;
11921;SDS011;6021;51.182;3.160;2022-08-21T04:15:34;12.63;;;6.00;;
11921;SDS011;6021;51.182;3.160;2022-08-21T04:18:03;10.07;;;6.00;;
11921;SDS011;6021;51.182;3.160;2022-08-21T04:20:32;10.93;;;6.10;;
11921;SDS011;6021;51.182;3.160;2022-08-21T04:23:01;10.00;;;6.30;;
11921;SDS011;6021;51.182;3.160;2022-08-21T04:25:30;11.03;;;5.90;;
11921;SDS011;6021;51.182;3.160;2022-08-21T04:27:58;10.77;;;5.80;;
11921;SDS011;6021;51.182;3.160;2022-08-21T04:30:28;12.17;;;5.30;;
11921;SDS011;6021;51.182;3.160;2022-08-21T04:32:57;9.87;;;4.43;;
11921;SDS011;6021;51.182;3.160;2022-08-21T04:35:27;8.57;;;4.70;;
11921;SDS011;6021;51.182;3.160;2022-08-21T04:37:56;10.07;;;4.47;;
11921;SDS011;6021;51.182;3.160;2022-08-21T04:40:25;10.03;;;4.70;;
11921;SDS011;6021;51.182;3.160;2022-08-21T04:43:03;9.03;;;4.90;;
11921;SDS011;6021;51.182;3.160;2022-08-21T04:45:31;11.83;;;5.13;;
11921;SDS011;6021;51.182;3.160;2022-08-21T04:48:10;11.07;;;5.23;;
11921;SDS011;6021;51.182;3.160;2022-08-21T04:53:39;9.80;;;5.00;;
11921;SDS011;6021;51.182;3.160;2022-08-21T04:56:09;9.93;;;5.03;;
11921;SDS011;6021;51.182;3.160;2022-08-21T04:58:39;8.77;;;5.00;;
11921;SDS011;6021;51.182;3.160;2022-08-21T05:01:11;8.47;;;4.63;;
11921;SDS011;6021;51.182;3.160;2022-08-21T05:03:39;9.33;;;4.73;;
11921;SDS011;6021;51.182;3.160;2022-08-21T05:06:09;11.97;;;5.60;;
11921;SDS011;6021;51.182;3.160;2022-08-21T05:08:39;11.47;;;5.57;;
11921;SDS011;6021;51.182;3.160;2022-08-21T05:11:10;8.83;;;5.43;;
11921;SDS011;6021;51.182;3.160;2022-08-21T05:13:38;8.50;;;5.53;;
11921;SDS011;6021;51.182;3.160;2022-08-21T05:16:08;8.70;;;5.47;;
11921;SDS011;6021;51.182;3.160;2022-08-21T05:18:37;10.37;;;5.90;;
11921;SDS011;6021;51.182;3.160;2022-08-21T05:21:05;12.13;;;5.63;;
11921;SDS011;6021;51.182;3.160;2022-08-21T05:23:33;10.67;;;5.73;;
11921;SDS011;6021;51.182;3.160;2022-08-21T05:26:02;9.10;;;5.73;;
11921;SDS011;6021;51.182;3.160;2022-08-21T05:28:31;10.00;;;5.13;;
11921;SDS011;6021;51.182;3.160;2022-08-21T05:30:59;10.60;;;5.23;;
11921;SDS011;6021;51.182;3.160;2022-08-21T05:33:28;8.20;;;5.00;;
11921;SDS011;6021;51.182;3.160;2022-08-21T05:35:56;8.47;;;4.60;;
11921;SDS011;6021;51.182;3.160;2022-08-21T05:38:25;12.50;;;6.43;;
11921;SDS011;6021;51.182;3.160;2022-08-21T05:40:54;8.33;;;4.97;;
11921;SDS011;6021;51.182;3.160;2022-08-21T05:43:23;7.00;;;4.63;;
11921;SDS011;6021;51.182;3.160;2022-08-21T05:45:51;9.07;;;4.70;;
11921;SDS011;6021;51.182;3.160;2022-08-21T05:48:20;9.27;;;4.80;;
11921;SDS011;6021;51.182;3.160;2022-08-21T05:50:50;9.43;;;4.77;;
11921;SDS011;6021;51.182;3.160;2022-08-21T05:53:20;10.87;;;4.83;;
11921;SDS011;6021;51.182;3.160;2022-08-21T05:55:49;9.07;;;4.80;;
11921;SDS011;6021;51.182;3.160;2022-08-21T05:58:19;9.60;;;5.10;;
11921;SDS011;6021;51.182;3.160;2022-08-21T06:00:49;9.80;;;5.10;;
11921;SDS011;6021;51.182;3.160;2022-08-21T06:03:20;10.07;;;4.53;;
11921;SDS011;6021;51.182;3.160;2022-08-21T06:05:51;9.07;;;4.67;;
11921;SDS011;6021;51.182;3.160;2022-08-21T06:08:20;10.63;;;4.70;;
11921;SDS011;6021;51.182;3.160;2022-08-21T06:10:49;11.00;;;4.50;;
11921;SDS011;6021;51.182;3.160;2022-08-21T06:13:19;9.27;;;4.10;;
11921;SDS011;6021;51.182;3.160;2022-08-21T06:15:49;8.20;;;3.63;;
11921;SDS011;6021;51.182;3.160;2022-08-21T06:18:19;6.83;;;3.73;;
11921;SDS011;6021;51.182;3.160;2022-08-21T06:20:47;9.10;;;4.20;;
11921;SDS011;6021;51.182;3.160;2022-08-21T06:23:15;14.27;;;4.40;;
11921;SDS011;6021;51.182;3.160;2022-08-21T06:25:43;11.60;;;4.40;;
11921;SDS011;6021;51.182;3.160;2022-08-21T06:28:12;10.30;;;4.63;;
11921;SDS011;6021;51.182;3.160;2022-08-21T06:30:41;9.33;;;4.07;;
11921;SDS011;6021;51.182;3.160;2022-08-21T06:33:09;10.77;;;4.03;;
11921;SDS011;6021;51.182;3.160;2022-08-21T06:35:38;8.23;;;3.97;;
11921;SDS011;6021;51.182;3.160;2022-08-21T06:38:06;8.17;;;4.20;;
11921;SDS011;6021;51.182;3.160;2022-08-21T06:40:35;10.47;;;4.40;;
11921;SDS011;6021;51.182;3.160;2022-08-21T06:43:14;8.43;;;3.93;;
11921;SDS011;6021;51.182;3.160;2022-08-21T06:45:38;9.10;;;4.00;;
11921;SDS011;6021;51.182;3.160;2022-08-21T06:48:06;8.27;;;3.83;;
11921;SDS011;6021;51.182;3.160;2022-08-21T06:50:36;12.17;;;4.30;;
11921;SDS011;6021;51.182;3.160;2022-08-21T06:53:05;9.13;;;3.97;;
11921;SDS011;6021;51.182;3.160;2022-08-21T06:55:36;8.17;;;4.00;;
11921;SDS011;6021;51.182;3.160;2022-08-21T06:58:05;11.47;;;4.30;;
11921;SDS011;6021;51.182;3.160;2022-08-21T07:00:34;9.53;;;4.00;;
11921;SDS011;6021;51.182;3.160;2022-08-21T07:03:04;8.10;;;4.13;;
11921;SDS011;6021;51.182;3.160;2022-08-21T07:05:33;9.87;;;4.30;;
11921;SDS011;6021;51.182;3.160;2022-08-21T07:08:02;8.80;;;4.23;;
11921;SDS011;6021;51.182;3.160;2022-08-21T07:10:30;9.37;;;3.83;;
11921;SDS011;6021;51.182;3.160;2022-08-21T07:12:58;10.67;;;4.50;;
11921;SDS011;6021;51.182;3.160;2022-08-21T07:15:28;11.47;;;4.97;;
11921;SDS011;6021;51.182;3.160;2022-08-21T07:17:57;10.37;;;4.67;;
11921;SDS011;6021;51.182;3.160;2022-08-21T07:20:28;9.30;;;4.33;;
11921;SDS011;6021;51.182;3.160;2022-08-21T07:22:58;12.60;;;4.53;;
11921;SDS011;6021;51.182;3.160;2022-08-21T07:25:29;10.20;;;3.90;;
11921;SDS011;6021;51.182;3.160;2022-08-21T07:27:57;13.10;;;4.50;;
11921;SDS011;6021;51.182;3.160;2022-08-21T07:30:26;9.17;;;3.90;;
11921;SDS011;6021;51.182;3.160;2022-08-21T07:32:55;9.30;;;4.30;;
11921;SDS011;6021;51.182;3.160;2022-08-21T07:35:24;10.30;;;4.30;;
11921;SDS011;6021;51.182;3.160;2022-08-21T07:37:54;12.10;;;4.80;;
11921;SDS011;6021;51.182;3.160;2022-08-21T07:40:22;9.27;;;4.00;;
11921;SDS011;6021;51.182;3.160;2022-08-21T07:42:51;10.63;;;4.40;;
11921;SDS011;6021;51.182;3.160;2022-08-21T07:45:22;7.87;;;4.53;;
11921;SDS011;6021;51.182;3.160;2022-08-21T07:47:51;9.43;;;5.00;;
11921;SDS011;6021;51.182;3.160;2022-08-21T07:50:19;10.43;;;4.30;;
11921;SDS011;6021;51.182;3.160;2022-08-21T07:52:47;10.80;;;5.13;;
11921;SDS011;6021;51.182;3.160;2022-08-21T07:55:17;11.03;;;5.33;;
11921;SDS011;6021;51.182;3.160;2022-08-21T07:57:48;9.20;;;4.80;;
11921;SDS011;6021;51.182;3.160;2022-08-21T08:00:18;8.97;;;4.73;;
11921;SDS011;6021;51.182;3.160;2022-08-21T08:02:48;12.40;;;5.37;;
11921;SDS011;6021;51.182;3.160;2022-08-21T08:05:20;9.73;;;5.20;;
11921;SDS011;6021;51.182;3.160;2022-08-21T08:07:52;11.73;;;5.00;;
11921;SDS011;6021;51.182;3.160;2022-08-21T08:10:20;12.37;;;5.47;;
11921;SDS011;6021;51.182;3.160;2022-08-21T08:12:50;10.10;;;4.80;;
11921;SDS011;6021;51.182;3.160;2022-08-21T08:15:19;10.00;;;5.07;;
11921;SDS011;6021;51.182;3.160;2022-08-21T08:17:50;14.93;;;4.93;;
11921;SDS011;6021;51.182;3.160;2022-08-21T08:20:19;10.53;;;5.10;;
11921;SDS011;6021;51.182;3.160;2022-08-21T08:22:49;9.93;;;4.80;;
11921;SDS011;6021;51.182;3.160;2022-08-21T08:25:18;10.50;;;5.30;;
11921;SDS011;6021;51.182;3.160;2022-08-21T08:27:47;10.57;;;4.40;;
11921;SDS011;6021;51.182;3.160;2022-08-21T08:30:16;10.97;;;4.60;;
11921;SDS011;6021;51.182;3.160;2022-08-21T08:32:46;13.47;;;4.57;;
11921;SDS011;6021;51.182;3.160;2022-08-21T08:35:15;11.10;;;3.70;;
11921;SDS011;6021;51.182;3.160;2022-08-21T08:37:43;9.93;;;3.30;;
11921;SDS011;6021;51.182;3.160;2022-08-21T08:40:13;10.60;;;3.90;;
11921;SDS011;6021;51.182;3.160;2022-08-21T08:42:49;6.70;;;2.70;;
11921;SDS011;6021;51.182;3.160;2022-08-21T08:45:18;8.87;;;3.17;;
11921;SDS011;6021;51.182;3.160;2022-08-21T08:47:53;8.13;;;2.90;;
11921;SDS011;6021;51.182;3.160;2022-08-21T08:50:26;8.37;;;2.83;;
11921;SDS011;6021;51.182;3.160;2022-08-21T08:52:59;12.10;;;3.30;;
11921;SDS011;6021;51.182;3.160;2022-08-21T08:55:39;8.57;;;2.97;;
11921;SDS011;6021;51.182;3.160;2022-08-21T08:58:15;9.27;;;3.50;;
11921;SDS011;6021;51.182;3.160;2022-08-21T09:00:50;8.13;;;3.33;;
11921;SDS011;6021;51.182;3.160;2022-08-21T09:03:21;7.00;;;3.20;;
11921;SDS011;6021;51.182;3.160;2022-08-21T09:11:26;8.33;;;3.10;;
11921;SDS011;6021;51.182;3.160;2022-08-21T09:19:27;9.73;;;3.13;;
11921;SDS011;6021;51.182;3.160;2022-08-21T09:24:47;9.00;;;3.20;;
11921;SDS011;6021;51.182;3.160;2022-08-21T09:27:28;10.77;;;3.03;;
11921;SDS011;6021;51.182;3.160;2022-08-21T09:32:34;8.73;;;3.23;;
11921;SDS011;6021;51.182;3.160;2022-08-21T09:38:01;8.00;;;2.60;;
11921;SDS011;6021;51.182;3.160;2022-08-21T09:40:57;7.00;;;2.53;;
11921;SDS011;6021;51.182;3.160;2022-08-21T09:43:24;8.37;;;2.53;;
11921;SDS011;6021;51.182;3.160;2022-08-21T09:46:04;10.30;;;2.47;;
11921;SDS011;6021;51.182;3.160;2022-08-21T09:48:44;5.53;;;2.20;;
11921;SDS011;6021;51.182;3.160;2022-08-21T09:51:15;6.07;;;2.20;;
11921;SDS011;6021;51.182;3.160;2022-08-21T09:56:56;6.47;;;2.10;;
11921;SDS011;6021;51.182;3.160;2022-08-21T09:59:46;8.10;;;2.10;;
11921;SDS011;6021;51.182;3.160;2022-08-21T10:02:25;6.97;;;1.80;;
11921;SDS011;6021;51.182;3.160;2022-08-21T10:05:23;7.17;;;1.90;;
11921;SDS011;6021;51.182;3.160;2022-08-21T10:07:48;5.50;;;2.20;;
11921;SDS011;6021;51.182;3.160;2022-08-21T10:10:28;7.93;;;2.30;;
11921;SDS011;6021;51.182;3.160;2022-08-21T10:13:16;7.77;;;2.50;;
11921;SDS011;6021;51.182;3.160;2022-08-21T10:18:51;8.37;;;2.57;;
11921;SDS011;6021;51.182;3.160;2022-08-21T10:21:31;6.67;;;2.20;;
11921;SDS011;6021;51.182;3.160;2022-08-21T10:32:45;6.17;;;2.17;;
11921;SDS011;6021;51.182;3.160;2022-08-21T10:35:24;7.53;;;2.20;;
11921;SDS011;6021;51.182;3.160;2022-08-21T10:38:01;7.47;;;2.10;;
11921;SDS011;6021;51.182;3.160;2022-08-21T10:40:59;6.77;;;2.33;;
11921;SDS011;6021;51.182;3.160;2022-08-21T10:43:35;9.60;;;2.63;;
11921;SDS011;6021;51.182;3.160;2022-08-21T10:48:50;5.17;;;2.10;;
11921;SDS011;6021;51.182;3.160;2022-08-21T10:56:38;5.10;;;2.20;;
11921;SDS011;6021;51.182;3.160;2022-08-21T11:07:28;7.93;;;2.40;;
11921;SDS011;6021;51.182;3.160;2022-08-21T11:10:04;6.57;;;2.27;;
11921;SDS011;6021;51.182;3.160;2022-08-21T11:12:44;6.13;;;2.33;;
11921;SDS011;6021;51.182;3.160;2022-08-21T11:16:03;4.70;;;2.30;;
11921;SDS011;6021;51.182;3.160;2022-08-21T11:18:50;6.17;;;2.20;;
11921;SDS011;6021;51.182;3.160;2022-08-21T11:20:46;5.43;;;2.37;;
11921;SDS011;6021;51.182;3.160;2022-08-21T11:23:36;10.97;;;2.90;;
11921;SDS011;6021;51.182;3.160;2022-08-21T11:26:13;7.40;;;2.37;;
11921;SDS011;6021;51.182;3.160;2022-08-21T11:28:50;7.10;;;2.50;;
11921;SDS011;6021;51.182;3.160;2022-08-21T11:31:27;5.67;;;2.10;;
11921;SDS011;6021;51.182;3.160;2022-08-21T11:34:04;8.87;;;2.43;;
11921;SDS011;6021;51.182;3.160;2022-08-21T11:39:36;7.40;;;2.57;;
11921;SDS011;6021;51.182;3.160;2022-08-21T11:44:56;5.23;;;2.57;;
11921;SDS011;6021;51.182;3.160;2022-08-21T11:47:53;6.00;;;2.70;;
11921;SDS011;6021;51.182;3.160;2022-08-21T11:50:25;6.13;;;2.50;;
11921;SDS011;6021;51.182;3.160;2022-08-21T11:53:00;6.97;;;2.73;;
11921;SDS011;6021;51.182;3.160;2022-08-21T12:00:57;6.63;;;2.40;;
11921;SDS011;6021;51.182;3.160;2022-08-21T12:03:27;5.93;;;2.70;;
11921;SDS011;6021;51.182;3.160;2022-08-21T12:06:02;7.13;;;2.67;;
11921;SDS011;6021;51.182;3.160;2022-08-21T12:08:38;8.17;;;2.77;;
11921;SDS011;6021;51.182;3.160;2022-08-21T12:11:10;7.47;;;2.50;;
11921;SDS011;6021;51.182;3.160;2022-08-21T12:13:53;6.87;;;2.20;;
11921;SDS011;6021;51.182;3.160;2022-08-21T12:16:35;5.17;;;2.30;;
11921;SDS011;6021;51.182;3.160;2022-08-21T12:19:12;5.03;;;2.53;;
11921;SDS011;6021;51.182;3.160;2022-08-21T12:24:41;8.50;;;2.47;;
11921;SDS011;6021;51.182;3.160;2022-08-21T12:27:14;7.37;;;2.43;;
11921;SDS011;6021;51.182;3.160;2022-08-21T12:29:55;6.27;;;2.37;;
11921;SDS011;6021;51.182;3.160;2022-08-21T12:32:26;8.10;;;2.70;;
11921;SDS011;6021;51.182;3.160;2022-08-21T12:35:18;9.00;;;2.57;;
11921;SDS011;6021;51.182;3.160;2022-08-21T12:37:40;6.00;;;2.53;;
11921;SDS011;6021;51.182;3.160;2022-08-21T12:40:57;5.60;;;2.73;;
11921;SDS011;6021;51.182;3.160;2022-08-21T12:42:48;5.70;;;2.50;;
11921;SDS011;6021;51.182;3.160;2022-08-21T12:45:37;5.17;;;2.40;;
11921;SDS011;6021;51.182;3.160;2022-08-21T12:48:16;9.03;;;2.67;;
11921;SDS011;6021;51.182;3.160;2022-08-21T12:50:48;7.87;;;2.70;;
11921;SDS011;6021;51.182;3.160;2022-08-21T12:55:50;7.37;;;2.43;;
11921;SDS011;6021;51.182;3.160;2022-08-21T12:58:19;7.90;;;2.70;;
11921;SDS011;6021;51.182;3.160;2022-08-21T13:00:50;7.10;;;2.50;;
11921;SDS011;6021;51.182;3.160;2022-08-21T13:03:23;8.33;;;2.73;;
11921;SDS011;6021;51.182;3.160;2022-08-21T13:05:52;7.10;;;2.37;;
11921;SDS011;6021;51.182;3.160;2022-08-21T13:08:21;5.67;;;2.40;;
11921;SDS011;6021;51.182;3.160;2022-08-21T13:10:59;4.73;;;2.10;;
11921;SDS011;6021;51.182;3.160;2022-08-21T13:13:29;8.57;;;2.70;;
11921;SDS011;6021;51.182;3.160;2022-08-21T13:16:03;7.60;;;2.40;;
11921;SDS011;6021;51.182;3.160;2022-08-21T13:18:33;8.13;;;2.70;;
11921;SDS011;6021;51.182;3.160;2022-08-21T13:21:11;6.83;;;2.63;;
11921;SDS011;6021;51.182;3.160;2022-08-21T13:23:41;7.60;;;2.37;;
11921;SDS011;6021;51.182;3.160;2022-08-21T13:26:18;8.73;;;2.50;;
11921;SDS011;6021;51.182;3.160;2022-08-21T13:28:47;4.80;;;2.27;;
11921;SDS011;6021;51.182;3.160;2022-08-21T13:31:19;8.00;;;2.73;;
11921;SDS011;6021;51.182;3.160;2022-08-21T13:33:48;8.63;;;2.90;;
11921;SDS011;6021;51.182;3.160;2022-08-21T13:36:18;7.60;;;2.87;;
11921;SDS011;6021;51.182;3.160;2022-08-21T13:38:54;6.80;;;2.63;;
11921;SDS011;6021;51.182;3.160;2022-08-21T13:41:30;5.70;;;2.50;;
11921;SDS011;6021;51.182;3.160;2022-08-21T13:44:04;6.77;;;2.47;;
11921;SDS011;6021;51.182;3.160;2022-08-21T13:46:35;7.30;;;2.43;;
11921;SDS011;6021;51.182;3.160;2022-08-21T13:49:04;8.10;;;2.37;;
11921;SDS011;6021;51.182;3.160;2022-08-21T13:51:34;3.87;;;2.00;;
11921;SDS011;6021;51.182;3.160;2022-08-21T13:54:22;7.03;;;2.40;;
11921;SDS011;6021;51.182;3.160;2022-08-21T13:56:50;7.83;;;2.70;;
11921;SDS011;6021;51.182;3.160;2022-08-21T13:59:28;9.70;;;2.70;;
11921;SDS011;6021;51.182;3.160;2022-08-21T14:01:57;7.63;;;2.47;;
11921;SDS011;6021;51.182;3.160;2022-08-21T14:04:35;6.90;;;2.50;;
11921;SDS011;6021;51.182;3.160;2022-08-21T14:07:14;8.67;;;2.50;;
11921;SDS011;6021;51.182;3.160;2022-08-21T14:09:45;9.97;;;3.00;;
11921;SDS011;6021;51.182;3.160;2022-08-21T14:12:15;9.43;;;2.50;;
11921;SDS011;6021;51.182;3.160;2022-08-21T14:14:48;8.40;;;3.00;;
11921;SDS011;6021;51.182;3.160;2022-08-21T14:17:28;7.47;;;2.43;;
11921;SDS011;6021;51.182;3.160;2022-08-21T14:20:02;9.17;;;2.90;;
11921;SDS011;6021;51.182;3.160;2022-08-21T14:22:43;9.50;;;2.73;;
11921;SDS011;6021;51.182;3.160;2022-08-21T14:25:27;10.47;;;3.07;;
11921;SDS011;6021;51.182;3.160;2022-08-21T14:30:29;8.37;;;2.70;;
11921;SDS011;6021;51.182;3.160;2022-08-21T14:33:04;9.37;;;2.90;;
11921;SDS011;6021;51.182;3.160;2022-08-21T14:35:37;7.47;;;2.70;;
11921;SDS011;6021;51.182;3.160;2022-08-21T14:43:14;8.23;;;2.70;;
11921;SDS011;6021;51.182;3.160;2022-08-21T14:45:42;9.03;;;2.60;;
11921;SDS011;6021;51.182;3.160;2022-08-21T14:48:11;9.60;;;2.80;;
11921;SDS011;6021;51.182;3.160;2022-08-21T14:50:39;8.87;;;2.60;;
11921;SDS011;6021;51.182;3.160;2022-08-21T14:53:08;8.80;;;2.80;;
11921;SDS011;6021;51.182;3.160;2022-08-21T14:55:37;7.50;;;2.60;;
11921;SDS011;6021;51.182;3.160;2022-08-21T14:58:24;8.47;;;2.70;;
11921;SDS011;6021;51.182;3.160;2022-08-21T15:00:53;10.47;;;2.93;;
11921;SDS011;6021;51.182;3.160;2022-08-21T15:03:24;8.13;;;2.40;;
11921;SDS011;6021;51.182;3.160;2022-08-21T15:05:53;8.77;;;2.73;;
11921;SDS011;6021;51.182;3.160;2022-08-21T15:08:21;7.63;;;2.53;;
11921;SDS011;6021;51.182;3.160;2022-08-21T15:10:50;9.53;;;2.57;;
11921;SDS011;6021;51.182;3.160;2022-08-21T15:13:20;8.77;;;3.00;;
11921;SDS011;6021;51.182;3.160;2022-08-21T15:15:49;8.10;;;2.90;;
11921;SDS011;6021;51.182;3.160;2022-08-21T15:18:22;6.77;;;2.63;;
11921;SDS011;6021;51.182;3.160;2022-08-21T15:20:52;9.13;;;3.00;;
11921;SDS011;6021;51.182;3.160;2022-08-21T15:23:21;10.27;;;2.90;;
11921;SDS011;6021;51.182;3.160;2022-08-21T15:25:49;7.20;;;2.60;;
11921;SDS011;6021;51.182;3.160;2022-08-21T15:28:19;6.20;;;2.80;;
11921;SDS011;6021;51.182;3.160;2022-08-21T15:30:48;8.27;;;2.83;;
11921;SDS011;6021;51.182;3.160;2022-08-21T15:33:17;7.83;;;2.80;;
11921;SDS011;6021;51.182;3.160;2022-08-21T15:35:46;7.97;;;2.77;;
11921;SDS011;6021;51.182;3.160;2022-08-21T15:38:15;7.40;;;2.60;;
11921;SDS011;6021;51.182;3.160;2022-08-21T15:40:43;6.60;;;2.27;;
11921;SDS011;6021;51.182;3.160;2022-08-21T15:43:18;5.70;;;2.60;;
11921;SDS011;6021;51.182;3.160;2022-08-21T15:45:58;6.00;;;2.37;;
11921;SDS011;6021;51.182;3.160;2022-08-21T15:48:27;8.07;;;2.50;;
11921;SDS011;6021;51.182;3.160;2022-08-21T15:50:56;8.40;;;2.53;;
11921;SDS011;6021;51.182;3.160;2022-08-21T15:53:24;8.10;;;2.37;;
11921;SDS011;6021;51.182;3.160;2022-08-21T15:55:53;6.80;;;2.80;;
11921;SDS011;6021;51.182;3.160;2022-08-21T15:58:21;7.27;;;2.63;;
11921;SDS011;6021;51.182;3.160;2022-08-21T16:00:49;9.20;;;3.10;;
11921;SDS011;6021;51.182;3.160;2022-08-21T16:03:18;6.53;;;2.40;;
11921;SDS011;6021;51.182;3.160;2022-08-21T16:05:48;8.60;;;2.70;;
11921;SDS011;6021;51.182;3.160;2022-08-21T16:08:19;8.73;;;2.70;;
11921;SDS011;6021;51.182;3.160;2022-08-21T16:10:47;8.53;;;3.07;;
11921;SDS011;6021;51.182;3.160;2022-08-21T16:13:18;8.27;;;3.00;;
11921;SDS011;6021;51.182;3.160;2022-08-21T16:15:48;6.63;;;2.60;;
11921;SDS011;6021;51.182;3.160;2022-08-21T16:18:18;9.40;;;3.00;;
11921;SDS011;6021;51.182;3.160;2022-08-21T16:20:47;6.27;;;2.63;;
11921;SDS011;6021;51.182;3.160;2022-08-21T16:23:15;6.40;;;2.70;;
11921;SDS011;6021;51.182;3.160;2022-08-21T16:25:44;4.97;;;2.50;;
11921;SDS011;6021;51.182;3.160;2022-08-21T16:28:14;6.90;;;2.60;;
11921;SDS011;6021;51.182;3.160;2022-08-21T16:30:44;7.53;;;3.00;;
11921;SDS011;6021;51.182;3.160;2022-08-21T16:33:39;7.23;;;2.63;;
11921;SDS011;6021;51.182;3.160;2022-08-21T16:35:50;8.10;;;2.70;;
11921;SDS011;6021;51.182;3.160;2022-08-21T16:38:18;5.77;;;2.50;;
11921;SDS011;6021;51.182;3.160;2022-08-21T16:40:47;5.83;;;2.20;;
11921;SDS011;6021;51.182;3.160;2022-08-21T16:43:15;8.70;;;2.60;;